Time;durP1;ratioP1;P1;durP2;ratioP2;P2;SDS_P1;SDS_P2;PMS_P1;PMS_P2;Temp;Humidity;BMP_temperature;BMP_pressure;BME280_temperature;BME280_humidity;BME280_pressure;Samples;Min_cycle;Max_cycle;Signal;HPM_P1;HPM_P2
2023/09/04 00:01:02;;;;;;;5.40;4.63;;;18.50;99.90;;;;;;5061377;28;20862;-87
2023/09/04 00:06:30;;;;;;;5.27;4.67;;;18.40;99.90;;;;;;5249709;22;20466;-88
2023/09/04 00:09:15;;;;;;;4.90;4.50;;;18.40;99.90;;;;;;5104686;28;20575;-87
2023/09/04 00:11:55;;;;;;;4.60;4.20;;;18.40;99.90;;;;;;5066360;28;20496;-88
2023/09/04 00:14:34;;;;;;;4.30;4.00;;;18.40;99.90;;;;;;5117593;28;20479;-89
2023/09/04 00:17:37;;;;;;;4.60;4.27;;;18.40;99.90;;;;;;5111912;28;20467;-87
2023/09/04 00:20:06;;;;;;;4.10;3.80;;;18.40;99.90;;;;;;5127983;28;20856;-85
2023/09/04 00:22:35;;;;;;;4.43;4.13;;;18.40;99.90;;;;;;5133013;28;20547;-86
2023/09/04 00:28:33;;;;;;;4.70;4.30;;;18.40;99.90;;;;;;5111770;28;20712;-96
2023/09/04 00:34:27;;;;;;;5.97;5.50;;;18.30;99.90;;;;;;5235331;22;21000;-89
2023/09/04 00:37:00;;;;;;;5.17;4.70;;;18.30;99.90;;;;;;5101330;28;20534;-88
2023/09/04 00:43:25;;;;;;;125.23;98.43;;;18.30;99.90;;;;;;5022991;28;20475;-88
2023/09/04 00:45:52;;;;;;;59.87;47.50;;;18.30;99.90;;;;;;5111827;28;20492;-85
2023/09/04 00:51:40;;;;;;;5.00;4.50;;;18.30;99.90;;;;;;5099732;28;20889;-85
2023/09/04 00:54:18;;;;;;;4.07;3.77;;;18.30;99.90;;;;;;5099097;28;20497;-87
2023/09/04 00:56:55;;;;;;;4.40;4.10;;;18.30;99.90;;;;;;5100328;28;20556;-87
2023/09/04 00:59:27;;;;;;;4.43;4.03;;;18.20;99.90;;;;;;5113059;28;20487;-86
2023/09/04 01:01:56;;;;;;;6.17;4.40;;;18.20;99.90;;;;;;5104518;28;20491;-89
2023/09/04 01:04:24;;;;;;;4.90;4.50;;;18.20;99.90;;;;;;5113494;28;20479;-86
2023/09/04 01:06:55;;;;;;;5.13;4.03;;;18.10;99.90;;;;;;5112564;28;20530;-85
2023/09/04 01:09:26;;;;;;;3.90;3.60;;;18.10;99.90;;;;;;5104636;28;20468;-87
2023/09/04 01:12:00;;;;;;;4.50;4.13;;;18.10;99.90;;;;;;5103998;28;20487;-85
2023/09/04 01:14:29;;;;;;;5.17;4.77;;;18.20;99.90;;;;;;5114342;28;20483;-86
2023/09/04 01:16:56;;;;;;;4.83;4.43;;;18.10;99.90;;;;;;5116534;28;20464;-88
2023/09/04 01:19:32;;;;;;;5.30;4.80;;;18.10;99.90;;;;;;5106312;28;20460;-88
2023/09/04 01:22:08;;;;;;;4.50;4.20;;;18.00;99.90;;;;;;5105263;28;20456;-86
2023/09/04 01:24:39;;;;;;;3.97;3.67;;;18.00;99.90;;;;;;5116994;28;20601;-85
2023/09/04 01:27:16;;;;;;;6.60;4.40;;;18.00;99.90;;;;;;5116922;28;20465;-85
2023/09/04 01:29:52;;;;;;;5.43;4.93;;;17.90;99.90;;;;;;5105464;28;20468;-89
2023/09/04 01:32:26;;;;;;;5.50;5.10;;;18.00;99.90;;;;;;5107845;28;20468;-88
2023/09/04 01:34:58;;;;;;;4.50;4.10;;;17.90;99.90;;;;;;5105539;28;20825;-86
2023/09/04 01:37:37;;;;;;;4.30;4.00;;;17.90;99.90;;;;;;5107935;28;20468;-86
2023/09/04 01:40:07;;;;;;;5.23;4.70;;;17.90;99.90;;;;;;5116258;28;20775;-85
2023/09/04 01:42:41;;;;;;;4.50;4.20;;;17.90;99.90;;;;;;5117086;28;20472;-88
2023/09/04 01:45:12;;;;;;;5.20;4.70;;;17.80;99.90;;;;;;5115767;28;20469;-87
2023/09/04 01:47:39;;;;;;;5.20;4.70;;;17.80;99.90;;;;;;5117182;28;20499;-85
2023/09/04 01:50:09;;;;;;;4.23;3.93;;;17.80;99.90;;;;;;5106488;28;20483;-88
2023/09/04 01:52:49;;;;;;;4.73;4.33;;;17.80;99.90;;;;;;5097060;28;20479;-88
2023/09/04 01:55:21;;;;;;;4.60;4.30;;;17.70;99.90;;;;;;5117096;28;20483;-89
2023/09/04 01:57:48;;;;;;;4.80;4.40;;;17.70;99.90;;;;;;5118006;28;20460;-88
2023/09/04 02:00:18;;;;;;;3.60;3.30;;;17.70;99.90;;;;;;5117863;28;20460;-87
2023/09/04 02:02:49;;;;;;;4.57;4.17;;;17.70;99.90;;;;;;5119671;28;20460;-88
2023/09/04 02:05:33;;;;;;;5.53;4.20;;;17.70;99.90;;;;;;5118064;28;20502;-87
2023/09/04 02:08:27;;;;;;;4.87;4.47;;;17.70;99.90;;;;;;5099983;28;20464;-85
2023/09/04 02:10:58;;;;;;;4.70;4.30;;;17.70;99.90;;;;;;5096582;28;20553;-86
2023/09/04 02:13:29;;;;;;;4.70;4.30;;;17.70;99.90;;;;;;5107118;28;20541;-88
2023/09/04 02:15:59;;;;;;;4.47;4.10;;;17.60;99.90;;;;;;5116523;28;20468;-87
2023/09/04 02:18:32;;;;;;;4.73;4.20;;;17.60;99.90;;;;;;5117631;28;20479;-88
2023/09/04 02:21:03;;;;;;;4.83;4.43;;;17.60;99.90;;;;;;5105714;28;20505;-89
2023/09/04 02:23:34;;;;;;;4.73;4.00;;;17.60;99.90;;;;;;5115883;28;20472;-88
2023/09/04 02:26:04;;;;;;;4.60;4.30;;;17.60;99.90;;;;;;5105844;28;20472;-89
2023/09/04 02:28:37;;;;;;;4.60;4.20;;;17.60;99.90;;;;;;5116510;28;20522;-89
2023/09/04 02:31:12;;;;;;;4.20;3.80;;;17.60;99.90;;;;;;5105794;28;20484;-86
2023/09/04 02:33:39;;;;;;;5.70;3.90;;;17.60;99.90;;;;;;5115892;28;20480;-85
2023/09/04 02:36:08;;;;;;;4.60;4.10;;;17.50;99.90;;;;;;5114984;28;20856;-86
2023/09/04 02:38:36;;;;;;;4.60;4.20;;;17.50;99.90;;;;;;5116053;28;20794;-88
2023/09/04 02:41:03;;;;;;;8.50;4.23;;;17.50;99.90;;;;;;5115891;28;20492;-87
2023/09/04 02:43:32;;;;;;;6.10;4.67;;;17.50;99.90;;;;;;5116960;28;20513;-86
2023/09/04 02:46:21;;;;;;;4.37;4.07;;;17.50;99.90;;;;;;5107172;28;20476;-86
2023/09/04 02:48:48;;;;;;;4.30;4.00;;;17.50;99.90;;;;;;5118567;28;20437;-88
2023/09/04 02:51:15;;;;;;;4.93;4.50;;;17.50;99.90;;;;;;5136002;28;20464;-85
2023/09/04 02:53:44;;;;;;;5.43;4.93;;;17.50;99.90;;;;;;5136063;27;20468;-88
2023/09/04 02:56:11;;;;;;;4.47;4.13;;;17.40;99.90;;;;;;5117194;28;20476;-86
2023/09/04 02:58:38;;;;;;;4.43;4.13;;;17.40;99.90;;;;;;5114909;28;20473;-86
2023/09/04 03:01:09;;;;;;;5.30;4.90;;;17.40;99.90;;;;;;5116196;28;21025;-88
2023/09/04 03:03:41;;;;;;;5.07;4.67;;;17.40;99.90;;;;;;5096072;28;20503;-86
2023/09/04 03:06:10;;;;;;;4.90;4.53;;;17.40;99.90;;;;;;5115167;28;20783;-86
2023/09/04 03:08:38;;;;;;;4.53;4.13;;;17.40;99.90;;;;;;5105460;28;20494;-86
2023/09/04 03:11:10;;;;;;;4.13;3.83;;;17.40;99.90;;;;;;5115464;28;20469;-86
2023/09/04 03:13:38;;;;;;;5.00;4.50;;;17.40;99.90;;;;;;5104652;28;20815;-86
2023/09/04 03:16:10;;;;;;;4.90;4.40;;;17.30;99.90;;;;;;5114951;28;20496;-89
2023/09/04 03:18:37;;;;;;;5.73;4.73;;;17.40;99.90;;;;;;5114741;28;20532;-88
2023/09/04 03:21:06;;;;;;;4.53;4.23;;;17.40;99.90;;;;;;5116057;28;20468;-86
2023/09/04 03:23:38;;;;;;;6.50;4.50;;;17.40;99.90;;;;;;5103766;28;20958;-85
2023/09/04 03:26:07;;;;;;;4.93;4.63;;;17.40;99.90;;;;;;5106285;28;20559;-85
2023/09/04 03:28:42;;;;;;;4.80;4.50;;;17.30;99.90;;;;;;5113995;28;20453;-85
2023/09/04 03:31:15;;;;;;;4.73;4.33;;;17.30;99.90;;;;;;5104383;28;20488;-89
2023/09/04 03:33:45;;;;;;;5.43;3.73;;;17.40;99.90;;;;;;5085959;28;20464;-86
2023/09/04 03:36:12;;;;;;;4.90;4.50;;;17.40;99.90;;;;;;5114918;28;20854;-86
2023/09/04 03:38:39;;;;;;;4.83;4.33;;;17.40;99.90;;;;;;5113308;28;20972;-86
2023/09/04 03:41:10;;;;;;;4.57;4.27;;;17.40;99.90;;;;;;5092000;28;20536;-86
2023/09/04 03:43:44;;;;;;;5.03;4.60;;;17.40;99.90;;;;;;5102518;28;20457;-85
2023/09/04 03:46:22;;;;;;;4.67;4.33;;;17.40;99.90;;;;;;5114450;28;20495;-85
2023/09/04 03:48:49;;;;;;;5.53;5.03;;;17.40;99.90;;;;;;5112074;28;20464;-86
2023/09/04 03:51:19;;;;;;;4.20;3.90;;;17.40;99.90;;;;;;5114556;28;20467;-88
2023/09/04 03:53:50;;;;;;;5.20;4.80;;;17.30;99.90;;;;;;5105315;28;20464;-89
2023/09/04 03:56:20;;;;;;;6.40;5.90;;;17.30;99.90;;;;;;5102762;28;20479;-86
2023/09/04 03:58:48;;;;;;;5.50;5.00;;;17.30;99.90;;;;;;5114813;28;20469;-88
2023/09/04 04:01:16;;;;;;;5.23;4.77;;;17.30;99.90;;;;;;5104658;28;20481;-86
2023/09/04 04:03:50;;;;;;;7.10;6.40;;;17.30;99.90;;;;;;5114416;28;20472;-85
2023/09/04 04:06:17;;;;;;;6.33;5.33;;;17.30;99.90;;;;;;5104881;28;20456;-85
2023/09/04 04:08:48;;;;;;;5.67;5.27;;;17.20;99.90;;;;;;5113254;28;20472;-85
2023/09/04 04:11:19;;;;;;;5.50;5.10;;;17.20;99.90;;;;;;5103628;28;20491;-85
2023/09/04 04:13:55;;;;;;;4.57;4.27;;;17.20;99.90;;;;;;5114802;28;20468;-85
2023/09/04 04:16:46;;;;;;;5.73;5.13;;;17.20;99.90;;;;;;5103507;28;20497;-86
2023/09/04 04:19:16;;;;;;;5.77;5.27;;;17.20;99.90;;;;;;5114173;28;20537;-85
2023/09/04 04:21:46;;;;;;;5.87;5.47;;;17.20;99.90;;;;;;5113778;28;20977;-88
2023/09/04 04:24:14;;;;;;;5.00;4.60;;;17.20;99.90;;;;;;5114706;28;20472;-88
2023/09/04 04:26:50;;;;;;;5.03;4.53;;;17.10;99.90;;;;;;5114196;28;20464;-88
2023/09/04 04:29:24;;;;;;;5.90;5.10;;;17.10;99.90;;;;;;5114047;28;20468;-88
2023/09/04 04:31:51;;;;;;;6.27;4.83;;;17.20;99.90;;;;;;5114135;28;20472;-85
2023/09/04 04:34:18;;;;;;;5.20;4.80;;;17.20;99.90;;;;;;5102491;28;20483;-88
2023/09/04 04:36:51;;;;;;;6.23;5.67;;;17.20;99.90;;;;;;5106423;28;20472;-86
2023/09/04 04:39:22;;;;;;;6.47;5.87;;;17.20;99.90;;;;;;5102615;28;20548;-88
2023/09/04 04:41:49;;;;;;;5.60;5.20;;;17.20;99.90;;;;;;5101727;28;20471;-89
2023/09/04 04:44:20;;;;;;;5.97;5.57;;;17.20;99.90;;;;;;5114198;28;20847;-89
2023/09/04 04:46:48;;;;;;;5.03;4.53;;;17.20;99.90;;;;;;5113749;28;20472;-88
2023/09/04 04:49:19;;;;;;;6.90;5.83;;;17.20;99.90;;;;;;5114346;28;20488;-89
2023/09/04 04:51:47;;;;;;;5.63;5.20;;;17.20;99.90;;;;;;5114731;28;20460;-87
2023/09/04 04:54:19;;;;;;;5.80;5.30;;;17.10;99.90;;;;;;5102633;28;20830;-86
2023/09/04 04:56:47;;;;;;;6.47;5.90;;;17.20;99.90;;;;;;5102900;28;20555;-85
2023/09/04 04:59:15;;;;;;;6.37;5.87;;;17.20;99.90;;;;;;5101642;28;20537;-88
2023/09/04 05:01:45;;;;;;;5.73;5.23;;;17.20;99.90;;;;;;5101593;28;20980;-85
2023/09/04 05:04:12;;;;;;;5.63;5.13;;;17.20;99.90;;;;;;5107931;28;20457;-88
2023/09/04 05:06:44;;;;;;;6.87;5.80;;;17.20;99.90;;;;;;5116412;28;20461;-88
2023/09/04 05:09:12;;;;;;;8.03;6.50;;;17.20;99.90;;;;;;5103341;28;20472;-90
2023/09/04 05:11:43;;;;;;;7.47;6.27;;;17.20;99.90;;;;;;5114635;28;20453;-89
2023/09/04 05:14:16;;;;;;;6.97;6.27;;;17.20;99.90;;;;;;5117018;28;20522;-86
2023/09/04 05:16:45;;;;;;;7.80;7.00;;;17.20;99.90;;;;;;5120150;28;20464;-88
2023/09/04 05:19:14;;;;;;;5.93;5.40;;;17.20;99.90;;;;;;5112875;28;20476;-87
2023/09/04 05:21:42;;;;;;;5.93;5.43;;;17.20;99.90;;;;;;5132113;28;20460;-87
2023/09/04 05:24:14;;;;;;;5.33;4.83;;;17.20;99.90;;;;;;5110114;28;20472;-87
2023/09/04 05:26:41;;;;;;;7.17;6.20;;;17.30;99.90;;;;;;5130328;28;20463;-87
2023/09/04 05:29:08;;;;;;;8.57;5.63;;;17.20;99.90;;;;;;5116916;28;20461;-86
2023/09/04 05:31:50;;;;;;;7.23;5.73;;;17.30;99.90;;;;;;5090568;28;20516;-88
2023/09/04 05:34:25;;;;;;;6.20;5.70;;;17.30;99.90;;;;;;5116239;28;20476;-88
2023/09/04 05:36:59;;;;;;;6.10;5.50;;;17.40;99.90;;;;;;5095290;28;20477;-88
2023/09/04 05:39:36;;;;;;;5.80;5.40;;;17.30;99.90;;;;;;5096792;28;20955;-88
2023/09/04 05:45:21;;;;;;;5.63;5.13;;;17.40;99.90;;;;;;5090458;28;20501;-85
2023/09/04 05:47:51;;;;;;;6.30;5.80;;;17.50;99.90;;;;;;5107303;28;20502;-88
2023/09/04 05:50:34;;;;;;;5.80;5.30;;;17.50;99.90;;;;;;5096851;28;20529;-86
2023/09/04 05:56:18;;;;;;;6.50;5.90;;;17.60;99.90;;;;;;5117671;28;20471;-89
2023/09/04 05:59:06;;;;;;;5.60;5.10;;;17.60;99.90;;;;;;5110209;28;20460;-85
2023/09/04 06:02:05;;;;;;;5.17;4.77;;;17.60;99.90;;;;;;5089431;28;20979;-86
2023/09/04 06:04:39;;;;;;;5.33;4.87;;;17.70;99.90;;;;;;5117821;28;20954;-88
2023/09/04 06:07:16;;;;;;;6.00;5.40;;;17.70;99.90;;;;;;5111037;28;20809;-88
2023/09/04 06:09:56;;;;;;;8.20;6.80;;;17.80;99.90;;;;;;5117916;28;20456;-86
2023/09/04 06:12:36;;;;;;;6.57;5.97;;;17.80;99.90;;;;;;5119213;28;20478;-88
2023/09/04 06:18:12;;;;;;;6.60;5.60;;;17.90;99.90;;;;;;5100163;28;20460;-89
2023/09/04 06:21:07;;;;;;;7.83;6.30;;;17.90;99.90;;;;;;5100638;28;20820;-85
2023/09/04 06:23:39;;;;;;;6.27;5.70;;;18.00;99.90;;;;;;5118834;28;20530;-87
2023/09/04 06:26:16;;;;;;;8.00;7.10;;;18.00;99.90;;;;;;5119417;28;20580;-88
2023/09/04 06:28:47;;;;;;;7.10;6.40;;;18.10;99.90;;;;;;5106605;28;20472;-88
2023/09/04 06:31:18;;;;;;;7.93;7.23;;;18.10;99.90;;;;;;5120784;28;20473;-88
2023/09/04 06:40:07;;;;;;;7.30;6.60;;;18.30;99.90;;;;;;4927779;28;21007;-89
2023/09/04 06:46:00;;;;;;;8.70;7.80;;;18.30;99.90;;;;;;5056439;28;20494;-88
2023/09/04 06:49:00;;;;;;;11.97;10.97;;;18.40;99.90;;;;;;5051709;28;20536;-88
2023/09/04 06:51:34;;;;;;;10.93;9.83;;;18.40;99.90;;;;;;5051360;28;20467;-89
2023/09/04 06:54:12;;;;;;;9.73;8.80;;;18.50;99.90;;;;;;5060099;28;20470;-85
2023/09/04 06:56:56;;;;;;;8.97;8.27;;;18.60;99.90;;;;;;5055854;28;20513;-87
2023/09/04 06:59:41;;;;;;;8.60;7.90;;;18.60;99.90;;;;;;5051935;28;20463;-88
2023/09/04 07:02:16;;;;;;;8.93;8.03;;;18.70;99.90;;;;;;5090864;28;20464;-89
2023/09/04 07:04:47;;;;;;;8.67;7.90;;;18.70;99.90;;;;;;5097400;28;20942;-86
2023/09/04 07:07:16;;;;;;;7.50;7.00;;;18.80;99.90;;;;;;5095825;28;20469;-87
2023/09/04 07:09:51;;;;;;;6.93;6.30;;;18.80;99.90;;;;;;5096436;28;20560;-89
2023/09/04 07:12:21;;;;;;;7.50;6.90;;;18.90;99.90;;;;;;5085021;28;20469;-87
2023/09/04 07:14:50;;;;;;;7.57;6.87;;;19.00;99.90;;;;;;5085847;28;20481;-88
2023/09/04 07:17:27;;;;;;;6.60;6.00;;;19.00;99.90;;;;;;5084175;28;20474;-86
2023/09/04 07:19:56;;;;;;;6.10;5.60;;;19.10;99.90;;;;;;5098734;28;20462;-86
2023/09/04 07:22:55;;;;;;;;;;;;;;;;;;;;;
2023/09/04 07:25:34;;;;;;;;;;;;;;;;;;;;;
2023/09/04 07:28:13;;;;;;;6.43;6.00;;;19.30;99.90;;;;;;5089794;28;20528;-89
2023/09/04 07:31:06;;;;;;;7.50;6.63;;;19.30;99.90;;;;;;5077693;28;20461;-86
2023/09/04 07:33:38;;;;;;;7.47;6.70;;;19.40;99.90;;;;;;5094466;28;20561;-85
2023/09/04 07:41:59;;;;;;;13.00;11.63;;;19.60;99.90;;;;;;5058181;28;20728;-89
2023/09/04 07:44:52;;;;;;;9.70;8.80;;;19.60;99.90;;;;;;5081843;28;20477;-87
2023/09/04 07:47:21;;;;;;;8.83;7.30;;;19.70;99.90;;;;;;5085723;28;20462;-88
2023/09/04 07:50:05;;;;;;;7.80;7.17;;;19.80;99.90;;;;;;5082284;28;20846;-87
2023/09/04 07:52:53;;;;;;;7.03;6.40;;;19.90;99.90;;;;;;5084579;28;20564;-87
2023/09/04 07:55:49;;;;;;;6.00;5.50;;;19.90;99.90;;;;;;5092134;28;20469;-87
2023/09/04 07:58:21;;;;;;;6.23;5.60;;;20.00;99.90;;;;;;5095304;28;20476;-87
2023/09/04 08:01:17;;;;;;;5.50;4.70;;;20.10;99.90;;;;;;5083011;28;20493;-87
2023/09/04 08:03:44;;;;;;;5.23;4.80;;;20.20;99.90;;;;;;5081845;28;20481;-89
2023/09/04 08:06:19;;;;;;;5.10;4.60;;;20.20;99.90;;;;;;5082841;28;20470;-89
2023/09/04 08:08:59;;;;;;;5.43;4.83;;;20.30;99.90;;;;;;5097885;28;20465;-87
2023/09/04 08:11:30;;;;;;;6.43;4.60;;;20.30;99.90;;;;;;5086744;28;20475;-88
2023/09/04 08:14:04;;;;;;;5.63;4.10;;;20.40;99.90;;;;;;5085904;28;20469;-87
2023/09/04 08:16:34;;;;;;;4.50;4.10;;;20.40;99.90;;;;;;5095708;28;20466;-89
2023/09/04 08:19:39;;;;;;;4.47;4.10;;;20.50;99.90;;;;;;5096506;28;20501;-88
2023/09/04 08:22:33;;;;;;;7.20;4.30;;;20.60;99.90;;;;;;5085784;28;20524;-89
2023/09/04 08:25:41;;;;;;;6.83;4.70;;;20.60;99.90;;;;;;5097137;28;20481;-88
2023/09/04 08:28:26;;;;;;;6.70;4.37;;;20.70;99.90;;;;;;5095714;28;20556;-86
2023/09/04 08:31:01;;;;;;;4.77;4.37;;;20.80;99.90;;;;;;5094109;28;20561;-87
2023/09/04 08:33:34;;;;;;;5.97;4.63;;;20.80;99.90;;;;;;5086536;28;20484;-89
2023/09/04 08:36:07;;;;;;;6.07;4.20;;;20.90;99.90;;;;;;5115890;28;20479;-86
2023/09/04 08:38:44;;;;;;;;;;;;;;;;;;;;;
2023/09/04 08:41:26;;;;;;;13.40;6.70;;;21.00;99.90;;;;;;5105014;28;20528;-89
2023/09/04 08:44:04;;;;;;;5.83;4.60;;;21.00;99.90;;;;;;5105504;28;20468;-90
2023/09/04 08:46:35;;;;;;;7.23;4.80;;;21.10;99.90;;;;;;5103346;28;20499;-88
2023/09/04 08:49:14;;;;;;;6.00;4.93;;;21.20;99.90;;;;;;5112401;28;20488;-89
2023/09/04 08:54:35;;;;;;;5.77;5.20;;;21.30;99.90;;;;;;5110065;28;20452;-87
2023/09/04 08:57:11;;;;;;;4.80;4.40;;;21.40;99.90;;;;;;5105129;28;20467;-87
2023/09/04 08:59:41;;;;;;;6.27;5.13;;;21.40;99.90;;;;;;5104441;28;20479;-89
2023/09/04 09:02:39;;;;;;;5.93;4.30;;;21.50;99.90;;;;;;5113469;28;20967;-87
2023/09/04 09:05:10;;;;;;;6.70;6.00;;;21.50;99.90;;;;;;5575252;22;22594;-88
2023/09/04 09:07:39;;;;;;;6.47;5.87;;;21.60;99.90;;;;;;5113665;28;20477;-89
2023/09/04 09:10:36;;;;;;;9.03;5.50;;;21.60;99.90;;;;;;5110330;28;20476;-88
2023/09/04 09:13:36;;;;;;;5.20;4.70;;;21.70;99.90;;;;;;5114233;28;20503;-88
2023/09/04 09:16:47;;;;;;;5.47;4.90;;;21.80;99.90;;;;;;5089846;28;20461;-89
2023/09/04 09:19:50;;;;;;;4.70;4.40;;;21.90;99.90;;;;;;5098001;28;20511;-89
2023/09/04 09:22:39;;;;;;;4.53;4.13;;;21.90;99.90;;;;;;5097566;28;20453;-87
2023/09/04 09:28:40;;;;;;;4.70;4.30;;;22.00;99.90;;;;;;5058630;28;20480;-89
2023/09/04 09:31:25;;;;;;;4.00;3.70;;;22.10;99.90;;;;;;5089888;28;20522;-88
2023/09/04 09:34:04;;;;;;;4.97;4.47;;;22.10;99.90;;;;;;5096550;28;20481;-87
2023/09/04 09:37:02;;;;;;;5.10;4.60;;;22.20;99.90;;;;;;5097619;28;20476;-87
2023/09/04 09:40:23;;;;;;;4.20;3.80;;;22.20;99.90;;;;;;5102630;28;20457;-89
2023/09/04 09:42:55;;;;;;;4.73;4.23;;;22.30;99.90;;;;;;5043722;28;20463;-90
2023/09/04 09:48:56;;;;;;;5.40;4.90;;;22.40;99.90;;;;;;4991011;28;20558;-88
2023/09/04 09:51:23;;;;;;;5.13;4.73;;;22.50;99.90;;;;;;5060521;28;20468;-87
2023/09/04 09:54:21;;;;;;;6.67;4.30;;;22.50;99.90;;;;;;5103554;28;20467;-88
2023/09/04 09:56:50;;;;;;;3.77;3.47;;;22.50;99.90;;;;;;5098814;28;20488;-88
2023/09/04 10:00:02;;;;;;;3.90;3.60;;;22.60;99.90;;;;;;5097265;28;21038;-88
2023/09/04 10:02:39;;;;;;;4.47;4.07;;;22.60;99.90;;;;;;5097026;28;20456;-86
2023/09/04 10:05:22;;;;;;;5.03;3.37;;;22.60;99.90;;;;;;5088204;28;20465;-86
2023/09/04 10:08:09;;;;;;;3.57;3.30;;;22.60;99.90;;;;;;5088028;28;20552;-87
2023/09/04 10:10:41;;;;;;;5.53;5.03;;;22.60;99.90;;;;;;5077650;28;20548;-87
2023/09/04 10:13:50;;;;;;;4.03;3.73;;;22.70;99.90;;;;;;5094381;28;20466;-87
2023/09/04 10:16:30;;;;;;;3.93;3.53;;;22.70;99.90;;;;;;5096313;28;20465;-87
2023/09/04 10:22:45;;;;;;;4.90;4.50;;;22.80;99.90;;;;;;5083396;28;20466;-86
2023/09/04 10:25:31;;;;;;;6.33;5.77;;;22.80;99.90;;;;;;5067156;28;20465;-86
2023/09/04 10:28:09;;;;;;;4.67;4.27;;;22.80;99.90;;;;;;5095272;28;20470;-87
2023/09/04 10:33:24;;;;;;;4.30;3.83;;;22.90;99.90;;;;;;5092760;28;20461;-87
2023/09/04 10:36:04;;;;;;;3.70;3.40;;;22.90;99.90;;;;;;5094861;28;20793;-89
2023/09/04 10:38:32;;;;;;;4.00;3.67;;;22.90;99.90;;;;;;5085098;28;20473;-88
2023/09/04 10:41:49;;;;;;;5.10;4.60;;;23.00;99.90;;;;;;5095313;28;20446;-89
2023/09/04 10:44:53;;;;;;;4.47;4.17;;;23.00;99.90;;;;;;5050503;28;20476;-88
2023/09/04 10:47:53;;;;;;;4.13;3.83;;;23.00;99.90;;;;;;5077286;28;20533;-87
2023/09/04 10:51:33;;;;;;;3.83;3.00;;;23.00;99.90;;;;;;5090944;28;20518;-86
2023/09/04 10:54:02;;;;;;;3.30;3.10;;;23.00;99.90;;;;;;4868162;29;20489;-86
2023/09/04 11:03:34;;;;;;;8.03;7.40;;;23.10;99.90;;;;;;5068940;28;20493;-87
2023/09/04 11:06:19;;;;;;;3.97;3.53;;;23.10;99.90;;;;;;5085272;28;20475;-87
2023/09/04 11:09:02;;;;;;;;;;;;;;;;;;;;;
2023/09/04 11:12:25;;;;;;;2.90;2.70;;;23.20;99.90;;;;;;5094500;28;20452;-88
2023/09/04 11:19:11;;;;;;;3.60;3.30;;;23.20;99.90;;;;;;5073306;28;20514;-88
2023/09/04 11:21:44;;;;;;;4.80;4.40;;;23.30;99.90;;;;;;5079721;28;20470;-88
2023/09/04 11:24:14;;;;;;;5.40;4.97;;;23.30;99.90;;;;;;5125480;22;20436;-88
2023/09/04 11:26:43;;;;;;;4.00;3.70;;;23.30;99.90;;;;;;5115163;28;20928;-89
2023/09/04 11:30:25;;;;;;;3.67;3.37;;;23.40;99.90;;;;;;5115584;28;20816;-87
2023/09/04 11:33:05;;;;;;;4.60;4.00;;;23.40;99.90;;;;;;5084566;28;20460;-87
2023/09/04 11:35:47;;;;;;;5.10;4.40;;;23.40;99.90;;;;;;5108291;28;20475;-88
2023/09/04 11:38:51;;;;;;;4.07;3.67;;;23.40;99.90;;;;;;5113488;28;20495;-88
2023/09/04 11:41:21;;;;;;;4.50;4.00;;;23.40;99.90;;;;;;5114880;28;20476;-88
2023/09/04 11:43:48;;;;;;;3.80;3.40;;;23.40;99.90;;;;;;5088673;28;20951;-88
2023/09/04 11:46:21;;;;;;;4.43;4.10;;;23.40;99.90;;;;;;5115317;28;20758;-87
2023/09/04 11:48:51;;;;;;;4.40;4.10;;;23.40;99.90;;;;;;5112943;28;20468;-88
2023/09/04 11:51:21;;;;;;;4.03;3.70;;;23.40;99.90;;;;;;5114263;28;21023;-89
2023/09/04 11:54:06;;;;;;;3.43;3.13;;;23.40;99.90;;;;;;5090419;28;20475;-88
2023/09/04 11:56:42;;;;;;;3.33;2.97;;;23.50;99.90;;;;;;5115304;28;20473;-89
2023/09/04 11:59:35;;;;;;;;;;;;;;;;;;;;;
2023/09/04 12:02:36;;;;;;;3.20;3.00;;;23.60;99.90;;;;;;5109195;28;20775;-89
2023/09/04 12:05:35;;;;;;;3.47;3.17;;;23.60;99.90;;;;;;5142151;22;20579;-88
2023/09/04 12:08:08;;;;;;;4.90;3.40;;;23.60;99.90;;;;;;5082359;28;20466;-88
2023/09/04 12:11:01;;;;;;;4.80;3.40;;;23.60;99.90;;;;;;5054904;28;20482;-88
2023/09/04 12:13:33;;;;;;;3.60;3.30;;;23.60;99.90;;;;;;5082267;28;20523;-87
2023/09/04 12:19:03;;;;;;;5.03;4.63;;;23.60;99.90;;;;;;5091705;28;20469;-88
2023/09/04 12:21:32;;;;;;;4.77;4.40;;;23.60;99.90;;;;;;5077764;28;20826;-88
2023/09/04 12:24:36;;;;;;;5.43;4.90;;;23.60;99.90;;;;;;5085684;28;20997;-88
2023/09/04 12:27:29;;;;;;;4.80;4.40;;;23.60;99.90;;;;;;5092367;28;20461;-88
2023/09/04 12:30:00;;;;;;;4.87;4.57;;;23.60;99.90;;;;;;5093103;28;20441;-88
2023/09/04 12:32:53;;;;;;;4.83;4.43;;;23.50;99.90;;;;;;5093794;28;20451;-88
2023/09/04 12:35:43;;;;;;;5.13;4.70;;;23.50;99.90;;;;;;5113035;22;20476;-88
2023/09/04 12:38:44;;;;;;;3.70;3.40;;;23.40;99.90;;;;;;5092395;28;20464;-88
2023/09/04 12:41:12;;;;;;;3.73;3.43;;;23.50;99.90;;;;;;5096543;28;20476;-88
2023/09/04 12:43:41;;;;;;;4.27;3.97;;;23.50;99.90;;;;;;5092786;28;20441;-89
2023/09/04 12:46:16;;;;;;;4.37;4.07;;;23.50;99.90;;;;;;5565514;22;20488;-88
2023/09/04 12:49:28;;;;;;;3.87;3.57;;;23.50;99.90;;;;;;5113723;28;20483;-89
2023/09/04 12:54:50;;;;;;;3.40;3.20;;;23.50;99.90;;;;;;5110811;28;20920;-87
2023/09/04 12:57:37;;;;;;;3.80;3.50;;;23.50;99.90;;;;;;5103173;28;20494;-87
2023/09/04 13:00:42;;;;;;;4.33;3.93;;;23.50;99.90;;;;;;5090629;28;20475;-88
2023/09/04 13:03:23;;;;;;;4.33;3.97;;;23.50;99.90;;;;;;5078631;28;20483;-86
2023/09/04 13:05:55;;;;;;;4.23;3.93;;;23.50;99.90;;;;;;5109856;22;20522;-89
2023/09/04 13:08:28;;;;;;;3.83;3.53;;;23.40;99.90;;;;;;5100421;28;21117;-88
2023/09/04 13:11:05;;;;;;;4.20;3.90;;;23.50;99.90;;;;;;5104584;28;20464;-89
2023/09/04 13:13:34;;;;;;;3.73;3.43;;;23.50;99.90;;;;;;5106688;28;20468;-87
2023/09/04 13:16:22;;;;;;;3.50;3.30;;;23.50;99.90;;;;;;5078162;28;20484;-88
2023/09/04 13:19:35;;;;;;;3.57;3.37;;;23.50;99.90;;;;;;5091733;28;20464;-88
2023/09/04 13:23:00;;;;;;;3.80;3.43;;;23.50;99.90;;;;;;5035116;28;20537;-87
2023/09/04 13:25:28;;;;;;;4.00;3.70;;;23.50;99.90;;;;;;5032567;28;20468;-87
2023/09/04 13:28:38;;;;;;;3.87;3.57;;;23.50;99.90;;;;;;5012822;28;20480;-87
2023/09/04 13:31:25;;;;;;;4.70;4.30;;;23.50;99.90;;;;;;4941795;28;20471;-88
2023/09/04 13:34:08;;;;;;;5.93;4.03;;;23.50;99.90;;;;;;4988386;28;20468;-88
2023/09/04 13:39:32;;;;;;;4.60;4.20;;;23.60;99.90;;;;;;5014644;28;20780;-87
2023/09/04 13:44:51;;;;;;;3.70;3.40;;;23.60;99.90;;;;;;5089869;28;20457;-87
2023/09/04 13:47:24;;;;;;;4.10;3.80;;;23.50;99.90;;;;;;5096964;28;20453;-87
2023/09/04 13:53:44;;;;;;;6.13;5.63;;;23.50;99.90;;;;;;5016793;28;20588;-87
2023/09/04 13:56:39;;;;;;;4.40;4.10;;;23.50;99.90;;;;;;5034301;28;20467;-88
2023/09/04 13:59:51;;;;;;;3.60;3.27;;;23.50;99.90;;;;;;5104442;28;20536;-87
2023/09/04 14:06:09;;;;;;;4.23;3.50;;;23.70;99.90;;;;;;4918922;29;20475;-89
2023/09/04 14:15:21;;;;;;;13.03;10.80;;;24.00;99.90;;;;;;4886690;28;20520;-89
2023/09/04 14:21:13;;;;;;;8.33;7.53;;;24.00;99.90;;;;;;5074470;28;20483;-89
2023/09/04 14:24:24;;;;;;;5.67;5.17;;;23.80;99.90;;;;;;5115713;28;20465;-87
2023/09/04 14:30:59;;;;;;;10.97;8.70;;;23.50;99.90;;;;;;5009127;28;20504;-87
2023/09/04 14:33:30;;;;;;;15.10;13.60;;;23.40;99.90;;;;;;5020199;28;20540;-87
2023/09/04 14:38:46;;;;;;;23.80;21.50;;;23.20;99.90;;;;;;5101459;28;20464;-87
2023/09/04 14:44:45;;;;;;;;;;;;;;;;;;;;;
2023/09/04 14:47:35;;;;;;;7.10;6.33;;;23.30;99.90;;;;;;5082189;28;20831;-89
2023/09/04 14:50:37;;;;;;;7.47;6.77;;;23.30;99.90;;;;;;5070332;28;20508;-87
2023/09/04 14:55:54;;;;;;;7.20;6.27;;;23.40;99.90;;;;;;5070523;28;20540;-88
2023/09/04 14:58:32;;;;;;;7.50;6.77;;;23.40;99.90;;;;;;5070222;28;20459;-89
2023/09/04 15:04:56;;;;;;;9.53;8.50;;;23.50;99.90;;;;;;5252543;22;20533;-86
2023/09/04 15:13:38;;;;;;;26.57;23.80;;;23.40;99.90;;;;;;5007309;28;20525;-87
2023/09/04 15:16:25;;;;;;;31.00;27.80;;;23.40;99.90;;;;;;5074816;28;20457;-86
2023/09/04 15:18:52;;;;;;;26.57;24.00;;;23.30;99.90;;;;;;5083870;28;20495;-88
2023/09/04 15:21:59;;;;;;;;;;;;;;;;;;;;;
2023/09/04 15:24:35;;;;;;;23.20;20.67;;;23.30;99.90;;;;;;5192900;22;20443;-87
2023/09/04 15:27:23;;;;;;;18.20;16.60;;;23.30;99.90;;;;;;5097279;28;20522;-89
2023/09/04 15:33:43;;;;;;;11.07;10.07;;;23.30;99.90;;;;;;5079170;28;20460;-90
2023/09/04 15:40:08;;;;;;;10.47;9.33;;;23.20;99.90;;;;;;5037535;28;20544;-89
2023/09/04 15:48:57;;;;;;;11.80;10.70;;;23.10;99.90;;;;;;5082969;28;20960;-88
2023/09/04 15:51:32;;;;;;;9.37;8.57;;;23.00;99.90;;;;;;5096494;27;20476;-88
2023/09/04 15:54:29;;;;;;;11.37;10.23;;;23.00;99.90;;;;;;5113335;27;20930;-89
2023/09/04 16:00:56;;;;;;;10.70;9.70;;;22.90;99.90;;;;;;4967243;28;20571;-89
2023/09/04 16:08:02;;;;;;;11.77;10.60;;;22.80;99.90;;;;;;5007627;28;20481;-89
2023/09/04 16:14:08;;;;;;;8.03;7.33;;;22.80;99.90;;;;;;5027279;28;20457;-89
2023/09/04 16:21:17;;;;;;;7.50;6.80;;;22.80;99.90;;;;;;5016507;28;21013;-88